createdAt,value
2015-02-26T14:13:38.193Z,0
2015-02-26T14:13:48.637Z,0
2015-02-26T14:13:59.066Z,4189
2015-02-26T14:14:09.532Z,2916
2015-02-26T14:14:19.953Z,2314
2015-02-26T14:14:30.422Z,1752
2015-02-26T14:14:40.867Z,260441
2015-02-26T14:14:52.031Z,257942
2015-02-26T14:15:02.469Z,258741
2015-02-26T14:15:12.945Z,259794
2015-02-26T14:15:24.205Z,43412
2015-02-26T14:15:34.701Z,100607
2015-02-26T14:16:13.920Z,55340
2015-02-26T14:16:24.389Z,54500
2015-02-26T14:16:34.893Z,54679
2015-02-26T14:16:45.842Z,51378
2015-02-26T14:16:56.265Z,49199
2015-02-26T14:17:06.679Z,46454
2015-02-26T14:17:17.144Z,38947
2015-02-26T14:17:27.588Z,69476
2015-02-26T14:17:38.069Z,205454
2015-02-26T14:17:48.508Z,240255
2015-02-26T14:17:58.952Z,248791
2015-02-26T14:18:09.375Z,22921
2015-02-26T14:18:53.642Z,293
2015-02-26T14:19:04.117Z,261809
2015-02-26T14:19:14.581Z,261801
2015-02-26T14:19:25.048Z,261742
2015-02-26T14:19:35.624Z,261255
2015-02-26T14:19:46.120Z,260289
2015-02-26T14:19:56.558Z,97960
2015-02-26T14:20:06.978Z,92608
2015-02-26T14:20:17.423Z,88672
2015-02-26T14:20:27.896Z,86821
2015-02-26T14:20:38.332Z,86543
2015-02-26T14:20:48.758Z,87216
2015-02-26T14:20:59.228Z,88022
2015-02-26T14:21:09.726Z,88722
2015-02-26T14:21:20.251Z,89084
2015-02-26T14:21:30.753Z,89424
2015-02-26T14:21:41.213Z,89718
2015-02-26T14:21:51.685Z,89548
2015-02-26T14:22:02.132Z,88741
2015-02-26T14:22:12.594Z,86112
2015-02-26T14:22:23.020Z,83499
2015-02-26T14:22:33.440Z,82530
2015-02-26T14:22:43.888Z,82353
2015-02-26T14:22:55.194Z,83421
2015-02-26T14:23:05.657Z,85591
2015-02-26T14:23:16.140Z,87310
2015-02-26T14:23:26.586Z,90009
2015-02-26T14:23:37.030Z,93067
2015-02-26T14:23:47.457Z,95368
2015-02-26T14:23:57.888Z,97304
2015-02-26T14:24:08.306Z,97938
2015-02-26T14:24:18.755Z,98449
2015-02-26T14:24:29.254Z,98190
2015-02-26T14:24:39.737Z,96766
2015-02-26T14:24:50.169Z,94188
2015-02-26T14:25:00.607Z,90875
2015-02-26T14:25:11.051Z,88071
2015-02-26T14:25:21.627Z,85434
2015-02-26T14:25:32.105Z,83878
2015-02-26T14:25:42.550Z,82628
2015-02-26T14:25:52.964Z,81214
2015-02-26T14:26:03.409Z,80109
2015-02-26T14:26:13.862Z,79336
2015-02-26T14:26:24.797Z,78686
2015-02-26T14:26:35.211Z,78250
2015-02-26T14:26:45.747Z,78015
2015-02-26T14:26:56.191Z,78372
2015-02-26T14:27:06.646Z,78836
2015-02-26T14:27:17.089Z,79197
2015-02-26T14:27:27.506Z,79224
2015-02-26T14:27:37.926Z,79860
2015-02-26T14:27:48.385Z,80842
2015-02-26T14:27:58.847Z,81472
2015-02-26T14:28:09.312Z,81409
2015-02-26T14:28:19.752Z,81432
2015-02-26T14:28:30.199Z,81261
2015-02-26T14:28:41.001Z,81114
2015-02-26T14:28:51.557Z,82236
2015-02-26T14:29:02.048Z,84721
2015-02-26T14:29:12.439Z,90086
2015-02-26T14:29:22.905Z,93087
2015-02-26T14:29:33.819Z,219073
2015-02-26T14:29:44.946Z,223798
2015-02-26T14:29:55.395Z,226426
2015-02-26T14:30:05.843Z,225289
2015-02-26T14:30:16.288Z,223210
2015-02-26T14:30:26.727Z,223149
2015-02-26T14:30:37.176Z,229049
2015-02-26T14:30:48.248Z,262141
2015-02-26T14:30:58.669Z,885
2015-02-26T14:31:09.080Z,854
2015-02-26T14:31:19.509Z,585
2015-02-26T14:31:29.941Z,444
2015-02-26T14:31:40.337Z,643
2015-02-26T14:31:50.721Z,970
2015-02-26T14:32:01.166Z,1107
2015-02-26T14:32:11.583Z,858
2015-02-26T14:32:21.981Z,593
